ADDS METAR Data INFO
IDs: Format: Raw Decoded Include TAF

Data at: 2221 UTC 22 Aug 2017

K5T9 222215Z AUTO 11008G14KT 10SM SCT085 38/15 A2995 RMK A01
K5T9 222155Z AUTO 09009G18KT 050V110 10SM SCT085 37/15 A2995 RMK A01
K5T9 222135Z AUTO 11007G16KT 060V150 10SM FEW080 37/15 A2996 RMK A01
K5T9 222115Z AUTO 08006G15KT 10SM FEW080 FEW090 36/15 A2997 RMK A01
K5T9 222055Z AUTO 00000G12KT 10SM CLR 37/16 A2998 RMK A01
K5T9 222035Z AUTO 10009G16KT 060V120 10SM FEW070 37/17 A2999 RMK A01
K5T9 222015Z AUTO 10006G16KT 10SM FEW070 36/17 A2999 RMK A01
K5T9 221955Z AUTO VRB06G13KT 10SM FEW070 37/17 A3000 RMK A01
K5T9 221935Z AUTO 11011G16KT 10SM FEW070 37/17 A3001 RMK A01
K5T9 221915Z AUTO 06009KT 050V110 10SM CLR 36/17 A3002 RMK A01
K5T9 221855Z AUTO 11007G12KT 080V140 10SM CLR 36/18 A3003 RMK A01
K5T9 221835Z AUTO 11008G13KT 10SM CLR 36/18 A3004 RMK A01
K5T9 221815Z AUTO VRB06KT 10SM CLR 34/18 A3004 RMK A01
K5T9 221755Z AUTO VRB05G11KT 10SM CLR 34/19 A3005 RMK A01
K5T9 221735Z AUTO 07007KT 030V110 10SM FEW049 34/20 A3005 RMK A01
K5T9 221715Z AUTO VRB05KT 10SM FEW048 33/20 A3006 RMK A01
K5T9 221555Z AUTO VRB04KT 10SM SCT028 31/21 A3007 RMK A01